Time;durP1;ratioP1;P1;durP2;ratioP2;P2;SDS_P1;SDS_P2;PMS_P1;PMS_P2;Temp;Humidity;BMP_temperature;BMP_pressure;BME280_temperature;BME280_humidity;BME280_pressure;Samples;Min_cycle;Max_cycle;Signal;HPM_P1;HPM_P2
2022/04/03 00:01:31;;;;;;;9.38;7.50;;;;;;;5.19;68.77;99851.53;1673844;85;27475;-62
2022/04/03 00:03:58;;;;;;;9.93;8.80;;;;;;;5.13;69.07;99858.20;1673622;85;25529;-62
2022/04/03 00:06:25;;;;;;;12.68;9.70;;;;;;;5.07;69.34;99854.21;1673690;85;25773;-62
2022/04/03 00:08:51;;;;;;;12.33;9.43;;;;;;;5.04;69.28;99857.61;1673745;85;25742;-63
2022/04/03 00:11:18;;;;;;;14.00;11.35;;;;;;;5.10;70.02;99853.11;1673708;85;25853;-63
2022/04/03 00:13:45;;;;;;;12.95;10.60;;;;;;;5.15;70.12;99855.77;1673897;85;27545;-62
2022/04/03 00:16:11;;;;;;;14.53;11.25;;;;;;;5.07;69.59;99859.55;1673544;85;25869;-63
2022/04/03 00:18:38;;;;;;;15.43;12.20;;;;;;;4.94;69.63;99864.14;1674402;85;25441;-61
2022/04/03 00:21:05;;;;;;;17.23;11.90;;;;;;;4.97;70.04;99855.45;1679009;85;25789;-61
2022/04/03 00:23:32;;;;;;;15.43;12.18;;;;;;;5.03;70.44;99855.91;1679149;85;25730;-61
2022/04/03 00:25:59;;;;;;;16.67;13.18;;;;;;;4.90;70.23;99848.88;1655202;86;27418;-62
2022/04/03 00:28:28;;;;;;;16.73;12.23;;;;;;;4.87;70.63;99845.16;1655707;86;26149;-63
2022/04/03 00:30:56;;;;;;;15.70;12.55;;;;;;;4.93;70.56;99843.32;1655402;86;25732;-63
2022/04/03 00:33:24;;;;;;;16.55;12.90;;;;;;;5.05;70.74;99836.66;1655754;86;25934;-62
2022/04/03 00:35:51;;;;;;;17.12;13.88;;;;;;;5.09;70.56;99836.28;1655594;85;25759;-63
2022/04/03 00:38:19;;;;;;;16.02;12.45;;;;;;;5.13;70.78;99834.21;1655527;86;27463;-63
2022/04/03 00:40:49;;;;;;;15.25;12.45;;;;;;;5.00;70.87;99822.36;1655509;86;25822;-62
2022/04/03 00:43:16;;;;;;;19.77;13.70;;;;;;;4.91;70.64;99826.59;1653371;85;25795;-63
2022/04/03 00:45:47;;;;;;;16.27;13.15;;;;;;;4.91;71.29;99829.27;1640683;87;25959;-63
2022/04/03 00:48:14;;;;;;;17.77;13.98;;;;;;;4.94;71.79;99830.83;1649802;85;26166;-62
2022/04/03 00:50:42;;;;;;;22.50;13.98;;;;;;;4.89;71.82;99824.53;1713910;82;27465;-62
2022/04/03 00:53:09;;;;;;;17.50;13.53;;;;;;;4.91;71.74;99818.60;1652911;86;25754;-62
2022/04/03 00:55:40;;;;;;;15.88;12.45;;;;;;;4.98;71.67;99822.46;1713849;83;25779;-62
2022/04/03 00:58:07;;;;;;;18.70;13.58;;;;;;;5.00;71.65;99816.53;1654200;85;25792;-62
2022/04/03 01:00:34;;;;;;;18.02;13.38;;;;;;;4.91;71.46;99821.77;1698644;83;25495;-62
2022/04/03 01:03:03;;;;;;;17.87;13.38;;;;;;;4.89;71.89;99827.20;1719464;82;27501;-62
2022/04/03 01:05:30;;;;;;;19.17;13.90;;;;;;;4.81;71.95;99825.63;1719338;83;25768;-62
2022/04/03 01:07:57;;;;;;;17.23;13.55;;;;;;;4.81;71.89;99829.62;1719212;82;25685;-63
2022/04/03 01:10:24;;;;;;;18.57;13.48;;;;;;;4.83;71.91;99818.37;1719491;82;26487;-62
2022/04/03 01:12:52;;;;;;;17.60;13.98;;;;;;;4.78;71.97;99822.73;1719387;83;25834;-62
2022/04/03 01:15:20;;;;;;;18.75;12.63;;;;;;;4.76;72.13;99819.34;1719296;82;28701;-62
2022/04/03 01:17:47;;;;;;;15.30;12.10;;;;;;;4.79;72.29;99824.94;1717554;83;25836;-63
2022/04/03 01:20:18;;;;;;;17.48;13.43;;;;;;;4.62;72.10;99830.25;1681738;84;25654;-61
2022/04/03 01:22:45;;;;;;;17.73;13.40;;;;;;;4.50;71.87;99831.58;1713863;83;25781;-61
2022/04/03 01:25:14;;;;;;;19.48;14.28;;;;;;;4.49;72.80;99839.70;1682177;84;25678;-62
2022/04/03 01:27:41;;;;;;;18.25;14.93;;;;;;;4.30;73.19;99835.80;1713831;83;27540;-63
2022/04/03 01:30:13;;;;;;;19.90;14.65;;;;;;;4.22;73.41;99841.70;1682213;85;25937;-62
2022/04/03 01:32:41;;;;;;;23.95;15.25;;;;;;;4.14;73.58;99844.11;1681846;85;26047;-62
2022/04/03 01:35:09;;;;;;;19.73;14.80;;;;;;;4.05;73.85;99843.02;1682301;85;25834;-62
2022/04/03 01:37:36;;;;;;;22.05;15.60;;;;;;;3.96;74.02;99840.19;1682148;84;25712;-62
2022/04/03 01:40:04;;;;;;;20.08;15.30;;;;;;;3.89;74.21;99840.66;1682466;85;28485;-61
2022/04/03 01:42:32;;;;;;;22.02;14.87;;;;;;;3.88;74.11;99834.14;1682121;85;25748;-62
2022/04/03 01:44:59;;;;;;;21.40;15.48;;;;;;;3.98;74.06;99839.13;1713961;82;25722;-62
2022/04/03 01:47:26;;;;;;;18.87;15.00;;;;;;;3.96;73.94;99838.86;1716514;82;25812;-62
2022/04/03 01:49:53;;;;;;;20.82;16.48;;;;;;;3.97;73.97;99837.44;1709032;83;25790;-61
2022/04/03 01:52:22;;;;;;;18.35;14.60;;;;;;;4.10;74.12;99849.79;1709043;83;27335;-62
2022/04/03 01:54:49;;;;;;;17.62;13.72;;;;;;;4.07;73.62;99841.56;1708981;83;25715;-62
2022/04/03 01:57:15;;;;;;;18.60;13.35;;;;;;;3.97;73.43;99832.58;1708961;83;25730;-61
2022/04/03 01:59:42;;;;;;;20.82;14.30;;;;;;;3.93;73.65;99827.14;1688801;83;25815;-62
2022/04/03 02:02:11;;;;;;;18.02;13.32;;;;;;;4.03;73.73;99829.47;1723214;83;25738;-62
2022/04/03 02:04:39;;;;;;;18.30;13.25;;;;;;;4.18;73.86;99822.95;1723423;83;27415;-63
2022/04/03 02:07:05;;;;;;;19.73;12.30;;;;;;;4.33;73.73;99816.06;1723462;83;25654;-63
2022/04/03 02:09:32;;;;;;;16.20;12.07;;;;;;;4.44;73.50;99817.91;1723197;83;25810;-64
2022/04/03 02:11:59;;;;;;;16.82;13.05;;;;;;;4.53;73.24;99829.14;1723094;83;27837;-62
2022/04/03 02:14:26;;;;;;;20.75;13.60;;;;;;;4.55;72.53;99836.54;1723422;83;25777;-63
2022/04/03 02:16:56;;;;;;;17.77;12.78;;;;;;;4.61;72.80;99838.75;1723133;83;27514;-63
2022/04/03 02:19:24;;;;;;;16.17;11.85;;;;;;;4.67;72.51;99842.25;1729854;82;25461;-63
2022/04/03 02:21:50;;;;;;;15.95;11.97;;;;;;;4.66;71.67;99848.54;1730600;82;25521;-63
2022/04/03 02:24:18;;;;;;;19.17;12.28;;;;;;;4.68;71.99;99847.08;1730333;82;25724;-63
2022/04/03 02:26:45;;;;;;;17.27;12.43;;;;;;;4.72;71.78;99849.88;1730057;82;26112;-63
2022/04/03 02:29:12;;;;;;;19.15;14.03;;;;;;;4.60;71.07;99852.16;1730194;82;27557;-62
2022/04/03 02:31:39;;;;;;;25.43;14.75;;;;;;;4.66;71.49;99847.70;1713882;82;25773;-63
2022/04/03 02:34:06;;;;;;;18.00;13.58;;;;;;;4.73;71.54;99853.38;1730097;82;25767;-62
2022/04/03 02:36:33;;;;;;;19.45;14.35;;;;;;;4.76;71.15;99855.80;1730235;82;25844;-62
2022/04/03 02:39:00;;;;;;;17.90;15.03;;;;;;;4.60;70.44;99850.36;1730046;82;25752;-62
2022/04/03 02:41:27;;;;;;;20.57;16.17;;;;;;;4.48;70.65;99856.14;1730072;82;27436;-62
2022/04/03 02:43:54;;;;;;;21.42;15.65;;;;;;;4.44;70.94;99849.37;1727111;82;25826;-62
2022/04/03 02:46:21;;;;;;;21.82;16.00;;;;;;;4.38;70.95;99849.36;1723320;83;25731;-62
2022/04/03 02:48:48;;;;;;;25.12;16.50;;;;;;;4.38;71.21;99848.03;1712208;81;25739;-62
2022/04/03 02:51:16;;;;;;;23.47;16.95;;;;;;;4.37;71.30;99842.34;1681394;84;25733;-62
2022/04/03 02:53:42;;;;;;;20.43;15.13;;;;;;;4.35;71.26;99848.26;1707761;83;27467;-62
2022/04/03 02:56:09;;;;;;;20.97;15.80;;;;;;;4.21;71.58;99864.46;1707465;84;25473;-62
2022/04/03 02:58:36;;;;;;;21.40;15.70;;;;;;;4.03;71.75;99870.72;1707080;83;25691;-62
2022/04/03 03:01:04;;;;;;;19.73;14.95;;;;;;;3.92;72.48;99874.17;1706323;84;27941;-61
2022/04/03 03:03:31;;;;;;;21.77;16.17;;;;;;;3.78;72.90;99873.88;1706362;84;25709;-62
2022/04/03 03:05:58;;;;;;;21.40;15.28;;;;;;;3.74;72.95;99854.63;1706261;83;27398;-63
2022/04/03 03:08:25;;;;;;;20.20;15.40;;;;;;;3.83;73.00;99850.45;1706211;84;26350;-62
2022/04/03 03:10:52;;;;;;;17.60;13.25;;;;;;;3.93;72.83;99841.28;1706275;84;25728;-63
2022/04/03 03:13:19;;;;;;;21.40;13.68;;;;;;;4.03;72.89;99837.45;1706229;83;25812;-63
2022/04/03 03:15:47;;;;;;;20.72;13.70;;;;;;;4.14;73.15;99840.12;1706455;83;25662;-63
2022/04/03 03:18:14;;;;;;;20.48;13.83;;;;;;;4.21;72.79;99850.66;1701470;83;26727;-62
2022/04/03 03:20:41;;;;;;;19.57;14.03;;;;;;;4.32;72.76;99854.31;1683817;85;25796;-61
2022/04/03 03:23:09;;;;;;;21.23;13.65;;;;;;;4.35;72.04;99851.42;1695788;84;25749;-62
2022/04/03 03:25:36;;;;;;;22.35;14.87;;;;;;;4.33;72.02;99858.20;1684078;85;25778;-65
2022/04/03 03:28:02;;;;;;;18.23;14.23;;;;;;;4.34;71.91;99865.70;1696196;84;25543;-62
2022/04/03 03:30:29;;;;;;;18.75;13.90;;;;;;;4.46;72.40;99859.43;1683570;85;28202;-62
2022/04/03 03:32:56;;;;;;;17.95;13.32;;;;;;;4.59;72.35;99855.79;1695946;84;25515;-63
2022/04/03 03:35:23;;;;;;;20.85;14.53;;;;;;;4.67;72.28;99862.70;1683726;85;25738;-63
2022/04/03 03:37:50;;;;;;;18.55;14.18;;;;;;;4.76;72.38;99862.47;1696123;84;26200;-61
2022/04/03 03:40:18;;;;;;;23.77;15.55;;;;;;;4.83;72.41;99858.34;1683775;85;25845;-62
2022/04/03 03:42:44;;;;;;;23.02;15.58;;;;;;;4.98;72.42;99860.28;1696029;84;27484;-61
2022/04/03 03:45:14;;;;;;;20.27;14.58;;;;;;;5.00;71.82;99860.52;1683366;83;26509;-61
2022/04/03 03:47:46;;;;;;;20.60;15.30;;;;;;;4.98;71.02;99854.95;1682199;85;25821;-61
2022/04/03 03:50:15;;;;;;;20.23;14.35;;;;;;;4.80;70.75;99856.78;1673684;85;25956;-62
2022/04/03 03:52:43;;;;;;;22.50;16.20;;;;;;;4.80;71.32;99858.11;1673841;85;25692;-61
2022/04/03 03:55:10;;;;;;;22.02;16.57;;;;;;;4.83;71.36;99855.67;1673691;85;27678;-62
2022/04/03 03:57:38;;;;;;;21.70;15.50;;;;;;;4.85;71.29;99863.08;1677473;84;25981;-62
2022/04/03 04:00:11;;;;;;;21.12;15.32;;;;;;;4.76;71.10;99855.80;1706308;83;25824;-62
2022/04/03 04:02:41;;;;;;;21.52;16.10;;;;;;;4.65;71.07;99858.00;1706208;83;25768;-61
2022/04/03 04:05:09;;;;;;;20.95;16.73;;;;;;;4.61;71.08;99852.53;1706388;83;25809;-62
2022/04/03 04:07:46;;;;;;;21.37;16.42;;;;;;;4.61;71.15;99848.53;1706349;84;27519;-62
2022/04/03 04:10:16;;;;;;;26.30;17.85;;;;;;;4.58;71.28;99856.75;1706356;84;25734;-62
2022/04/03 04:12:45;;;;;;;24.95;17.30;;;;;;;4.58;71.52;99872.73;1706427;83;25853;-62
2022/04/03 04:15:14;;;;;;;23.70;16.35;;;;;;;4.48;71.12;99876.61;1736375;82;25766;-62
2022/04/03 04:17:47;;;;;;;22.95;16.02;;;;;;;4.35;71.12;99880.22;1697746;84;25760;-61
2022/04/03 04:20:17;;;;;;;25.10;17.70;;;;;;;4.34;71.69;99883.88;1669572;85;27470;-61
2022/04/03 04:22:46;;;;;;;23.27;16.10;;;;;;;4.23;71.35;99886.50;1669559;85;25797;-62
2022/04/03 04:25:15;;;;;;;20.70;15.30;;;;;;;4.28;72.09;99876.33;1669078;85;25807;-61
2022/04/03 04:27:45;;;;;;;21.30;15.43;;;;;;;4.31;72.26;99871.25;1669471;85;25741;-63
2022/04/03 04:30:14;;;;;;;19.40;14.65;;;;;;;4.29;72.14;99876.70;1669264;85;25800;-63
2022/04/03 04:32:42;;;;;;;19.17;13.98;;;;;;;4.33;72.60;99886.63;1669539;85;27465;-61
2022/04/03 04:35:10;;;;;;;17.67;13.15;;;;;;;4.28;71.79;99890.14;1669244;85;25985;-61
2022/04/03 04:37:37;;;;;;;19.50;12.80;;;;;;;4.21;71.89;99890.59;1669658;85;25511;-62
2022/04/03 04:40:05;;;;;;;16.57;12.15;;;;;;;4.29;72.49;99887.34;1669041;85;25894;-62
2022/04/03 04:42:33;;;;;;;18.15;12.43;;;;;;;4.35;72.48;99887.37;1669575;85;25712;-62
2022/04/03 04:45:00;;;;;;;15.25;11.35;;;;;;;4.45;72.43;99883.03;1707278;82;27456;-61
2022/04/03 04:47:27;;;;;;;16.27;12.47;;;;;;;4.45;72.26;99883.03;1713494;82;25759;-61
2022/04/03 04:49:54;;;;;;;15.88;11.57;;;;;;;4.50;72.44;99878.68;1722344;81;25785;-61
2022/04/03 04:52:21;;;;;;;18.27;12.88;;;;;;;4.51;72.05;99886.55;1724264;82;26503;-61
2022/04/03 04:54:48;;;;;;;16.77;12.35;;;;;;;4.58;72.27;99894.05;1723925;82;25743;-62
2022/04/03 04:57:15;;;;;;;19.12;13.83;;;;;;;4.63;71.93;99898.55;1724262;81;28122;-61
2022/04/03 04:59:42;;;;;;;21.85;15.20;;;;;;;4.61;71.44;99910.67;1693920;83;25820;-62
2022/04/03 05:02:09;;;;;;;16.77;12.73;;;;;;;4.38;71.02;99912.44;1677809;84;25889;-63
2022/04/03 05:04:36;;;;;;;18.25;13.68;;;;;;;4.04;71.40;99928.28;1693673;84;25839;-62
2022/04/03 05:07:04;;;;;;;17.52;12.82;;;;;;;3.78;72.14;99934.23;1693268;84;25785;-62
2022/04/03 05:09:31;;;;;;;19.90;14.63;;;;;;;3.60;72.79;99947.42;1693369;84;28414;-61
2022/04/03 05:12:00;;;;;;;18.52;14.13;;;;;;;3.38;73.63;99952.11;1693609;84;25855;-62
2022/04/03 05:14:27;;;;;;;21.65;14.40;;;;;;;3.30;73.66;99947.83;1693322;84;25558;-62
2022/04/03 05:16:54;;;;;;;24.12;14.18;;;;;;;3.25;74.15;99960.12;1693286;84;27952;-62
2022/04/03 05:19:27;;;;;;;20.48;13.75;;;;;;;3.21;74.15;99952.47;1690124;83;25687;-62
2022/04/03 05:21:53;;;;;;;18.55;14.45;;;;;;;3.20;74.99;99962.73;1687100;83;27441;-62
2022/04/03 05:24:20;;;;;;;17.40;13.55;;;;;;;3.13;74.58;99965.83;1674441;85;25651;-62
2022/04/03 05:26:48;;;;;;;18.73;14.47;;;;;;;3.18;74.79;99956.70;1674567;85;25930;-62
2022/04/03 05:29:15;;;;;;;18.60;13.95;;;;;;;3.25;74.44;99960.61;1689799;83;25771;-63
2022/04/03 05:31:43;;;;;;;20.97;14.20;;;;;;;3.40;74.93;99950.70;1689888;83;26344;-62
2022/04/03 05:34:10;;;;;;;15.72;13.25;;;;;;;3.56;74.79;99959.27;1660373;86;27668;-61
2022/04/03 05:36:37;;;;;;;17.67;12.28;;;;;;;3.55;73.99;99962.01;1660204;86;26527;-62
2022/04/03 05:39:05;;;;;;;17.75;13.13;;;;;;;3.49;73.73;99969.11;1660466;86;25477;-62
2022/04/03 05:41:34;;;;;;;17.32;13.38;;;;;;;3.35;74.27;99962.13;1687060;84;25748;-61
2022/04/03 05:44:02;;;;;;;18.57;13.58;;;;;;;3.36;74.00;99967.81;1667970;84;25812;-62
2022/04/03 05:46:30;;;;;;;18.55;13.32;;;;;;;3.38;74.04;99957.92;1660459;85;27285;-62
2022/04/03 05:48:57;;;;;;;15.78;11.68;;;;;;;3.40;74.16;99959.51;1686103;85;25774;-62
2022/04/03 05:51:24;;;;;;;17.20;12.75;;;;;;;3.45;74.33;99956.02;1686140;85;25543;-62
2022/04/03 05:53:51;;;;;;;15.68;11.60;;;;;;;3.54;74.48;99964.33;1686043;85;25821;-62
2022/04/03 05:56:17;;;;;;;17.52;12.33;;;;;;;3.66;74.26;99960.76;1686070;85;25691;-63
2022/04/03 05:58:45;;;;;;;17.73;12.65;;;;;;;3.74;74.00;99965.04;1673325;85;28218;-61
2022/04/03 06:01:12;;;;;;;16.52;12.65;;;;;;;3.73;73.44;99967.33;1683223;85;25877;-62
2022/04/03 06:03:39;;;;;;;22.62;13.45;;;;;;;3.71;73.29;99967.94;1695710;84;25807;-62
2022/04/03 06:06:06;;;;;;;20.80;14.18;;;;;;;3.69;73.49;99966.33;1695734;84;25837;-62
2022/04/03 06:08:32;;;;;;;22.05;14.47;;;;;;;3.76;73.50;99962.28;1695657;84;26121;-62
2022/04/03 06:10:59;;;;;;;19.02;14.07;;;;;;;3.67;73.07;99967.78;1695532;84;27475;-62
2022/04/03 06:13:26;;;;;;;19.77;14.85;;;;;;;3.62;73.28;99959.77;1696016;84;25805;-61
2022/04/03 06:15:53;;;;;;;19.62;13.20;;;;;;;3.72;73.82;99959.47;1695787;84;25759;-61
2022/04/03 06:18:20;;;;;;;20.57;13.98;;;;;;;3.79;73.48;99955.39;1680813;84;25826;-62
2022/04/03 06:20:48;;;;;;;18.55;13.40;;;;;;;3.76;73.07;99949.82;1658285;86;27297;-62
2022/04/03 06:23:18;;;;;;;18.90;14.18;;;;;;;3.72;73.27;99953.65;1679965;85;28515;-61
2022/04/03 06:25:48;;;;;;;18.70;13.48;;;;;;;3.67;73.22;99957.64;1679485;84;25698;-61
2022/04/03 06:28:15;;;;;;;18.90;13.55;;;;;;;3.65;73.38;99959.55;1658407;86;25892;-62
2022/04/03 06:30:43;;;;;;;15.60;11.88;;;;;;;3.70;73.77;99972.89;1679414;85;25785;-62
2022/04/03 06:33:10;;;;;;;16.00;12.40;;;;;;;3.71;73.68;99981.24;1679745;83;26437;-61
2022/04/03 06:35:38;;;;;;;16.27;12.20;;;;;;;3.74;73.67;99981.00;1660025;85;27469;-61
2022/04/03 06:38:05;;;;;;;16.85;12.43;;;;;;;3.76;73.71;99980.91;1679855;83;25756;-61
2022/04/03 06:40:33;;;;;;;16.60;11.18;;;;;;;3.82;73.51;99991.55;1679579;83;25670;-61
2022/04/03 06:43:01;;;;;;;17.62;13.38;;;;;;;3.80;73.34;99993.01;1679472;83;26749;-62
2022/04/03 06:45:31;;;;;;;19.55;13.93;;;;;;;3.76;73.04;99989.72;1683094;85;25683;-62
2022/04/03 06:48:00;;;;;;;19.10;12.70;;;;;;;3.74;73.42;99995.63;1683176;85;27580;-62
2022/04/03 06:50:27;;;;;;;20.20;12.95;;;;;;;3.69;73.29;99987.15;1703173;83;25904;-63
2022/04/03 06:52:55;;;;;;;29.18;15.43;;;;;;;3.77;73.39;99985.23;1707976;83;25656;-62
2022/04/03 06:55:21;;;;;;;53.40;22.82;;;;;;;3.80;73.39;99981.53;1708066;83;25810;-62
2022/04/03 06:57:48;;;;;;;29.45;16.42;;;;;;;3.76;73.13;99984.41;1708175;83;25850;-62
2022/04/03 07:00:18;;;;;;;31.02;17.23;;;;;;;3.69;73.23;99985.81;1708003;83;27543;-62
2022/04/03 07:02:45;;;;;;;20.72;13.70;;;;;;;3.73;73.28;99985.11;1707944;83;25749;-61
2022/04/03 07:05:12;;;;;;;17.92;12.82;;;;;;;3.74;73.30;99993.47;1687771;84;25616;-62
2022/04/03 07:07:39;;;;;;;18.87;13.22;;;;;;;3.78;73.53;99990.94;1708102;84;26506;-63
2022/04/03 07:10:09;;;;;;;16.32;12.58;;;;;;;3.98;73.74;99992.63;1708104;83;25767;-63
2022/04/03 07:12:36;;;;;;;15.25;11.83;;;;;;;4.19;73.64;99984.85;1708089;84;27519;-62
2022/04/03 07:15:12;;;;;;;14.25;11.25;;;;;;;4.29;72.97;99986.36;1707998;83;25802;-62
2022/04/03 07:17:41;;;;;;;32.98;17.17;;;;;;;4.32;72.16;99994.97;1708084;84;25726;-61
2022/04/03 07:20:12;;;;;;;17.62;11.83;;;;;;;4.34;72.01;99998.38;1708041;83;25894;-61
2022/04/03 07:22:43;;;;;;;16.75;12.95;;;;;;;4.37;71.97;100006.11;1707802;82;25783;-61
2022/04/03 07:25:11;;;;;;;18.17;13.05;;;;;;;4.46;71.92;99998.39;1707605;82;27529;-62
2022/04/03 07:27:40;;;;;;;17.35;12.35;;;;;;;4.53;71.43;100007.14;1707723;83;25695;-62
2022/04/03 07:30:09;;;;;;;17.95;12.73;;;;;;;4.43;70.45;100007.47;1707855;84;25673;-62
2022/04/03 07:32:37;;;;;;;17.27;13.35;;;;;;;4.35;71.02;100010.70;1707863;84;25766;-62
2022/04/03 07:35:05;;;;;;;20.52;14.03;;;;;;;4.26;70.95;100017.20;1707814;82;25752;-61
2022/04/03 07:37:35;;;;;;;20.52;13.32;;;;;;;4.18;71.07;100031.94;1707844;82;28532;-63
2022/04/03 07:40:06;;;;;;;19.10;13.32;;;;;;;4.17;71.32;100028.06;1707768;82;25544;-62
2022/04/03 07:42:34;;;;;;;20.50;13.40;;;;;;;4.22;71.58;100038.72;1707765;82;25746;-62
2022/04/03 07:45:02;;;;;;;20.95;12.28;;;;;;;4.14;71.04;100042.42;1708006;84;25806;-62
2022/04/03 07:47:31;;;;;;;16.67;12.00;;;;;;;4.14;71.57;100044.25;1708060;84;25478;-62
2022/04/03 07:49:59;;;;;;;15.13;10.63;;;;;;;4.11;71.45;100044.00;1707606;83;27890;-63
2022/04/03 07:52:26;;;;;;;17.40;11.15;;;;;;;4.02;71.16;100044.67;1695865;84;25710;-63
2022/04/03 07:54:53;;;;;;;12.85;9.43;;;;;;;4.07;71.55;100057.16;1707527;84;25799;-62
2022/04/03 07:57:20;;;;;;;17.07;10.45;;;;;;;4.15;71.41;100052.61;1707407;83;26338;-62
2022/04/03 07:59:47;;;;;;;14.10;9.83;;;;;;;4.11;71.14;100058.64;1688973;83;25748;-63
2022/04/03 08:02:14;;;;;;;13.48;9.95;;;;;;;3.99;70.90;100061.70;1689259;83;27541;-63
2022/04/03 08:04:41;;;;;;;14.25;10.13;;;;;;;3.96;71.37;100067.72;1689019;84;25920;-61
2022/04/03 08:07:09;;;;;;;13.68;9.00;;;;;;;3.98;71.89;100070.67;1688929;83;25800;-62
2022/04/03 08:09:36;;;;;;;12.25;9.90;;;;;;;3.95;71.67;100068.22;1688908;83;27922;-63
2022/04/03 08:12:05;;;;;;;10.50;8.65;;;;;;;3.98;71.88;100069.34;1688977;83;25857;-62
2022/04/03 08:14:31;;;;;;;13.65;9.30;;;;;;;4.19;72.19;100068.25;1688613;84;27481;-61
2022/04/03 08:16:59;;;;;;;10.72;8.05;;;;;;;4.38;71.88;100066.40;1688875;83;25750;-61
2022/04/03 08:19:30;;;;;;;10.40;8.30;;;;;;;4.57;71.77;100072.19;1695520;84;25686;-62
2022/04/03 08:21:57;;;;;;;11.95;8.83;;;;;;;4.72;71.23;100074.16;1695843;83;27025;-62
2022/04/03 08:24:24;;;;;;;11.97;8.78;;;;;;;4.70;70.31;100067.63;1695963;84;25730;-62
2022/04/03 08:26:50;;;;;;;10.48;8.68;;;;;;;4.73;70.16;100074.53;1696369;84;28512;-63
2022/04/03 08:29:17;;;;;;;14.03;9.90;;;;;;;4.70;69.83;100076.48;1695780;84;25817;-63
2022/04/03 08:31:44;;;;;;;15.10;11.18;;;;;;;4.63;69.86;100075.22;1696220;84;25533;-62
2022/04/03 08:34:11;;;;;;;12.05;8.95;;;;;;;4.59;70.32;100087.55;1683629;85;25712;-62
2022/04/03 08:36:38;;;;;;;12.30;10.18;;;;;;;4.61;69.77;100082.97;1696003;84;25726;-63
2022/04/03 08:39:05;;;;;;;11.70;9.10;;;;;;;4.69;69.84;100084.11;1683488;85;29632;-62
2022/04/03 08:41:32;;;;;;;12.98;9.30;;;;;;;4.78;69.58;100079.88;1695605;84;25846;-61
2022/04/03 08:43:59;;;;;;;11.20;8.20;;;;;;;5.05;70.22;100085.41;1682123;84;25570;-63
2022/04/03 08:46:26;;;;;;;10.70;8.83;;;;;;;5.24;69.86;100081.33;1659688;86;25856;-62
2022/04/03 08:48:58;;;;;;;12.68;8.85;;;;;;;5.31;68.85;100078.08;1659998;85;25750;-62
2022/04/03 08:51:28;;;;;;;11.90;8.73;;;;;;;5.45;69.16;100088.14;1689518;83;27534;-62
2022/04/03 08:53:55;;;;;;;10.38;7.62;;;;;;;5.56;68.50;100088.16;1689346;84;25765;-63
2022/04/03 08:56:22;;;;;;;11.38;8.25;;;;;;;5.69;68.29;100087.20;1693346;84;25756;-63
2022/04/03 08:58:49;;;;;;;10.18;8.25;;;;;;;5.62;66.52;100089.00;1716642;83;26541;-62
2022/04/03 09:01:19;;;;;;;11.33;8.30;;;;;;;5.42;66.06;100095.06;1717819;83;25547;-62
2022/04/03 09:03:46;;;;;;;10.20;8.13;;;;;;;5.31;66.37;100092.75;1718099;83;27494;-62
2022/04/03 09:06:19;;;;;;;9.50;7.78;;;;;;;5.26;66.93;100091.40;1717911;83;25640;-63
2022/04/03 09:08:47;;;;;;;12.35;9.10;;;;;;;5.28;67.87;100092.14;1717499;83;25834;-61
2022/04/03 09:11:15;;;;;;;11.88;8.80;;;;;;;5.28;67.83;100090.30;1717863;83;25739;-62
2022/04/03 09:13:43;;;;;;;10.82;8.83;;;;;;;5.26;67.81;100088.73;1718016;83;25891;-61
2022/04/03 09:16:12;;;;;;;10.28;8.30;;;;;;;5.32;68.20;100093.12;1717834;83;27468;-62
2022/04/03 09:18:54;;;;;;;10.45;8.28;;;;;;;5.49;68.02;100096.28;1720546;83;25881;-62
2022/04/03 09:21:24;;;;;;;10.58;8.48;;;;;;;5.64;67.60;100094.23;1679401;84;25976;-62
2022/04/03 09:24:10;;;;;;;9.33;7.37;;;;;;;5.84;67.98;100092.64;1679774;85;25776;-62
2022/04/03 09:26:44;;;;;;;9.23;7.58;;;;;;;5.93;67.87;100101.25;1679670;85;25675;-62
2022/04/03 09:29:13;;;;;;;9.08;6.17;;;;;;;5.98;66.50;100105.36;1678127;84;27643;-63
2022/04/03 09:31:42;;;;;;;7.80;5.83;;;;;;;5.94;65.92;100102.09;1679952;84;32652;-62
2022/04/03 09:34:19;;;;;;;11.12;7.03;;;;;;;6.02;65.91;100097.52;1661851;85;25789;-62
2022/04/03 09:37:06;;;;;;;8.43;6.15;;;;;;;6.29;66.33;100101.09;1679953;85;25782;-62
2022/04/03 09:39:34;;;;;;;7.62;5.67;;;;;;;6.44;65.61;100100.33;1679849;84;25763;-62
2022/04/03 09:42:05;;;;;;;15.30;9.90;;;;;;;6.33;63.15;100106.56;1679749;85;28175;-62
2022/04/03 09:44:37;;;;;;;9.13;6.08;;;;;;;6.26;64.34;100107.53;1666758;84;25847;-62
2022/04/03 09:47:26;;;;;;;7.42;5.83;;;;;;;6.10;62.85;100115.93;1660087;86;25500;-62
2022/04/03 09:50:06;;;;;;;6.92;5.95;;;;;;;6.04;63.48;100112.93;1659982;85;26456;-62
2022/04/03 09:52:41;;;;;;;9.65;6.70;;;;;;;6.07;63.88;100112.19;1660391;85;25791;-63
2022/04/03 09:55:15;;;;;;;7.62;6.55;;;;;;;5.96;63.69;100120.17;1660059;86;27492;-62
2022/04/03 09:57:48;;;;;;;9.08;7.22;;;;;;;6.02;64.45;100120.20;1660112;85;25897;-64
2022/04/03 10:00:33;;;;;;;9.40;6.55;;;;;;;5.87;63.46;100115.06;1660535;85;25523;-62
2022/04/03 10:03:02;;;;;;;8.45;7.25;;;;;;;5.86;64.49;100117.88;1660229;85;26738;-63
2022/04/03 10:05:33;;;;;;;8.33;6.55;;;;;;;5.88;64.96;100116.77;1660502;85;25740;-62
2022/04/03 10:08:04;;;;;;;9.85;7.40;;;;;;;5.77;64.25;100117.63;1660153;85;27627;-62
2022/04/03 10:10:34;;;;;;;7.37;6.00;;;;;;;5.66;64.89;100115.45;1693924;84;25906;-61
2022/04/03 10:13:03;;;;;;;9.08;6.37;;;;;;;5.72;65.32;100110.48;1713898;82;25875;-62
2022/04/03 10:15:30;;;;;;;7.83;6.30;;;;;;;5.84;65.42;100122.47;1714465;82;25750;-62
2022/04/03 10:17:57;;;;;;;6.65;5.62;;;;;;;5.92;65.46;100120.05;1710582;82;25698;-62
2022/04/03 10:20:28;;;;;;;6.60;5.28;;;;;;;5.89;64.62;100118.97;1683614;85;28358;-62
2022/04/03 10:23:03;;;;;;;7.78;6.25;;;;;;;5.72;63.78;100117.16;1703734;84;25559;-62
2022/04/03 10:25:35;;;;;;;7.03;5.28;;;;;;;5.67;63.27;100123.33;1654916;85;25531;-61
2022/04/03 10:28:05;;;;;;;5.90;4.95;;;;;;;5.73;64.07;100126.87;1703464;84;25833;-62
2022/04/03 10:30:42;;;;;;;8.60;5.95;;;;;;;5.81;63.58;100135.59;1654575;86;25869;-61
2022/04/03 10:33:21;;;;;;;7.87;5.92;;;;;;;5.94;63.90;100126.98;1703427;82;27593;-61
2022/04/03 10:35:49;;;;;;;8.80;6.25;;;;;;;6.08;63.87;100129.05;1654607;85;25500;-62
2022/04/03 10:38:20;;;;;;;9.43;6.33;;;;;;;6.15;62.82;100130.25;1703357;84;25880;-62
2022/04/03 10:40:59;;;;;;;10.40;6.12;;;;;;;6.13;61.25;100127.34;1654936;86;26479;-61
2022/04/03 10:43:29;;;;;;;7.30;5.83;;;;;;;6.18;60.95;100127.34;1706033;83;25762;-61
2022/04/03 10:45:57;;;;;;;10.82;7.87;;;;;;;6.24;60.52;100135.35;1718092;83;27431;-62
2022/04/03 10:48:27;;;;;;;9.65;6.67;;;;;;;6.22;60.70;100133.28;1717956;83;25666;-62
2022/04/03 10:51:08;;;;;;;8.58;7.12;;;;;;;6.20;60.85;100128.08;1713861;82;25494;-62
2022/04/03 10:53:39;;;;;;;10.00;7.30;;;;;;;6.34;61.52;100131.44;1707164;84;25776;-62
2022/04/03 10:56:22;;;;;;;11.08;8.30;;;;;;;6.50;61.16;100134.55;1707692;84;25828;-61
2022/04/03 10:58:50;;;;;;;9.80;7.37;;;;;;;6.66;61.57;100127.47;1688010;84;27662;-63
2022/04/03 11:01:31;;;;;;;10.68;8.23;;;;;;;6.87;61.62;100133.35;1658577;85;25789;-62
2022/04/03 11:04:13;;;;;;;11.18;7.33;;;;;;;6.98;60.71;100127.09;1676120;85;26447;-62
2022/04/03 11:06:43;;;;;;;8.35;7.20;;;;;;;6.84;60.22;100136.27;1676474;85;25763;-63
2022/04/03 11:09:13;;;;;;;7.03;5.75;;;;;;;6.81;60.63;100125.35;1676557;84;25788;-62
2022/04/03 11:11:46;;;;;;;8.85;6.25;;;;;;;6.88;60.99;100133.22;1676523;85;28131;-62
2022/04/03 11:14:55;;;;;;;7.75;6.05;;;;;;;7.02;61.07;100133.90;1675962;84;25866;-62
2022/04/03 11:17:20;;;;;;;6.58;5.10;;;;;;;7.04;60.84;100128.77;1675777;85;25754;-62
2022/04/03 11:19:48;;;;;;;7.62;6.28;;;;;;;7.04;60.29;100135.93;1693225;84;25857;-62
2022/04/03 11:22:18;;;;;;;7.87;5.70;;;;;;;7.04;59.93;100130.58;1696042;83;25802;-62
2022/04/03 11:24:46;;;;;;;6.60;5.58;;;;;;;7.08;59.52;100136.05;1695948;84;27532;-62
2022/04/03 11:27:13;;;;;;;7.05;5.53;;;;;;;7.01;58.93;100134.88;1696150;83;25777;-62
2022/04/03 11:29:40;;;;;;;9.25;5.85;;;;;;;6.88;57.20;100141.73;1696207;84;25746;-63
2022/04/03 11:32:09;;;;;;;8.65;5.35;;;;;;;6.99;58.13;100138.16;1696001;83;25832;-62
2022/04/03 11:34:36;;;;;;;8.50;5.35;;;;;;;7.11;58.03;100146.97;1696276;84;25734;-62